Terminal Aerodrome Forecast
Issued by NWS Charleston, SC

Home | Current Version | Previous Version | Text Only | Print | Product List | Glossary On
Versions: 1 2 3 4 5 6 7 8 9 10 11 12 13 14 15 16
000
FTUS42 KCHS 310523
TAFSAV
TAF
KSAV 310523Z 3106/0106 VRB03KT P6SM SCT020 BKN090
      TEMPO 3113/3116 BKN025
     FM311700 20010KT P6SM VCTS SCT035CB BKN140
     FM010000 23007KT P6SM SCT025 BKN180=

USA.gov is the U.S. government's official web portal to all federal, state and local government web resources and services.